createdAt,value
2022-12-27T00:00:52.915Z,105.55
2022-12-27T00:03:41.090Z,112.47
2022-12-27T00:06:27.797Z,112.57
2022-12-27T00:09:16.092Z,118.72
2022-12-27T00:12:00.033Z,119.53
2022-12-27T00:14:42.074Z,121.88
2022-12-27T00:17:30.831Z,122.18
2022-12-27T00:20:20.057Z,121.03
2022-12-27T00:23:01.839Z,119.68
2022-12-27T00:25:50.133Z,117.57
2022-12-27T00:28:31.819Z,124.93
2022-12-27T00:31:22.047Z,121.95
2022-12-27T00:34:06.736Z,122.78
2022-12-27T00:36:55.777Z,124.45
2022-12-27T00:39:39.055Z,126.00
2022-12-27T00:42:27.873Z,126.90
2022-12-27T00:45:10.094Z,128.98
2022-12-27T00:47:59.827Z,129.63
2022-12-27T00:50:42.121Z,130.50
2022-12-27T00:53:32.885Z,130.90
2022-12-27T00:56:22.165Z,122.55
2022-12-27T00:59:12.825Z,117.40
2022-12-27T01:01:55.163Z,116.85
2022-12-27T01:04:43.762Z,116.13
2022-12-27T01:07:32.808Z,114.35
2022-12-27T01:10:22.102Z,114.53
2022-12-27T01:13:03.853Z,115.15
2022-12-27T01:15:52.141Z,118.35
2022-12-27T01:18:34.852Z,118.32
2022-12-27T01:21:26.393Z,116.65
2022-12-27T01:24:08.724Z,118.20
2022-12-27T01:26:57.662Z,120.35
2022-12-27T01:29:40.097Z,108.82
2022-12-27T01:32:28.764Z,104.90
2022-12-27T01:35:11.088Z,107.40
2022-12-27T01:38:00.818Z,104.00
2022-12-27T01:40:45.069Z,102.45
2022-12-27T01:43:46.746Z,104.28
2022-12-27T01:46:30.266Z,103.07
2022-12-27T01:49:19.852Z,104.43
2022-12-27T01:52:02.097Z,104.63
2022-12-27T01:54:50.846Z,105.78
2022-12-27T01:57:33.078Z,99.85
2022-12-27T02:00:21.725Z,100.45
2022-12-27T02:03:05.213Z,102.07
2022-12-27T02:05:53.796Z,101.63
2022-12-27T02:09:08.036Z,96.15
2022-12-27T02:12:01.652Z,94.60
2022-12-27T02:14:56.993Z,91.60
2022-12-27T02:17:45.840Z,85.10
2022-12-27T02:20:39.647Z,86.07
2022-12-27T02:24:14.700Z,86.32
2022-12-27T02:27:26.787Z,85.65
2022-12-27T02:30:17.766Z,85.50
2022-12-27T02:33:11.799Z,83.32
2022-12-27T02:36:12.206Z,83.57
2022-12-27T02:38:58.682Z,83.47
2022-12-27T02:42:07.531Z,79.57
2022-12-27T02:45:26.143Z,75.20
2022-12-27T02:48:39.421Z,77.15
2022-12-27T02:52:10.831Z,70.15
2022-12-27T02:55:17.780Z,67.30
2022-12-27T02:58:24.775Z,65.00
2022-12-27T03:01:32.890Z,66.70
2022-12-27T03:04:47.059Z,63.65
2022-12-27T03:11:29.157Z,58.85
2022-12-27T03:14:54.790Z,61.22
2022-12-27T03:18:03.632Z,61.40
2022-12-27T03:21:12.737Z,59.60
2022-12-27T03:24:15.518Z,58.15
2022-12-27T03:27:06.867Z,61.72
2022-12-27T03:30:07.580Z,61.90
2022-12-27T03:33:21.783Z,62.97
2022-12-27T03:39:27.743Z,57.97
2022-12-27T03:42:36.297Z,59.13
2022-12-27T03:45:29.723Z,59.40
2022-12-27T03:48:21.096Z,60.10
2022-12-27T03:51:19.658Z,58.25
2022-12-27T03:54:16.760Z,57.78
2022-12-27T03:57:05.813Z,59.20
2022-12-27T03:59:47.960Z,57.78
2022-12-27T04:02:37.042Z,58.72
2022-12-27T04:05:25.023Z,58.55
2022-12-27T04:08:25.825Z,57.75
2022-12-27T04:11:32.316Z,57.20
2022-12-27T04:14:32.862Z,57.85
2022-12-27T04:17:39.493Z,58.35
2022-12-27T04:20:40.790Z,57.88
2022-12-27T04:23:47.514Z,57.13
2022-12-27T04:26:47.655Z,56.20
2022-12-27T04:29:54.167Z,56.53
2022-12-27T04:32:54.728Z,58.20
2022-12-27T04:35:43.755Z,57.70
2022-12-27T04:38:26.147Z,57.92
2022-12-27T04:41:32.723Z,61.60
2022-12-27T04:44:33.342Z,60.75
2022-12-27T04:47:45.784Z,60.08
2022-12-27T04:51:03.735Z,61.83
2022-12-27T04:54:11.464Z,63.65
2022-12-27T04:56:53.658Z,61.47
2022-12-27T05:00:00.759Z,66.80
2022-12-27T05:02:44.213Z,63.90
2022-12-27T05:05:33.676Z,61.75
2022-12-27T05:08:36.489Z,63.50
2022-12-27T05:11:43.668Z,65.57
2022-12-27T05:14:26.071Z,64.68
2022-12-27T05:17:14.799Z,65.07
2022-12-27T05:19:57.078Z,63.58
2022-12-27T05:23:03.746Z,66.22
2022-12-27T05:25:53.042Z,64.32
2022-12-27T05:28:41.823Z,68.20
2022-12-27T05:31:24.191Z,68.22
2022-12-27T05:34:14.697Z,69.03
2022-12-27T05:37:03.761Z,67.97
2022-12-27T05:39:52.049Z,70.75
2022-12-27T05:42:33.645Z,73.63
2022-12-27T05:45:23.191Z,73.90
2022-12-27T05:48:06.697Z,77.00
2022-12-27T05:51:01.654Z,76.40
2022-12-27T05:53:50.638Z,75.00
2022-12-27T05:56:40.097Z,75.65
2022-12-27T05:59:28.034Z,76.97
2022-12-27T06:02:09.874Z,78.28
2022-12-27T06:04:53.078Z,79.57
2022-12-27T06:07:41.777Z,76.60
2022-12-27T06:10:30.131Z,79.10
2022-12-27T06:13:12.757Z,77.60
2022-12-27T06:16:02.291Z,78.70
2022-12-27T06:18:45.610Z,79.47
2022-12-27T06:21:34.716Z,77.57
2022-12-27T06:24:23.750Z,77.00
2022-12-27T06:27:13.065Z,83.65
2022-12-27T06:30:15.017Z,76.95
2022-12-27T06:33:06.122Z,78.65
2022-12-27T06:35:47.744Z,78.53
2022-12-27T06:38:36.106Z,79.07
2022-12-27T06:41:20.789Z,78.10
2022-12-27T06:44:02.884Z,77.72
2022-12-27T06:46:52.744Z,78.32
2022-12-27T06:49:42.021Z,80.75
2022-12-27T06:52:30.884Z,84.10
2022-12-27T06:55:13.973Z,80.15
2022-12-27T06:58:02.635Z,82.78
2022-12-27T07:00:45.143Z,77.07
2022-12-27T07:03:34.216Z,80.55
2022-12-27T07:06:18.123Z,83.57
2022-12-27T07:09:08.741Z,81.07
2022-12-27T07:11:51.149Z,83.05
2022-12-27T07:14:39.727Z,81.38
2022-12-27T07:17:22.054Z,84.93
2022-12-27T07:20:12.657Z,82.32
2022-12-27T07:22:55.131Z,84.60
2022-12-27T07:25:43.766Z,84.95
2022-12-27T07:28:32.691Z,83.53
2022-12-27T07:31:23.644Z,87.85
2022-12-27T07:34:07.981Z,87.43
2022-12-27T07:36:57.640Z,89.88
2022-12-27T07:39:46.942Z,90.10
2022-12-27T07:42:37.002Z,87.15
2022-12-27T07:45:18.729Z,91.13
2022-12-27T07:48:07.029Z,94.10
2022-12-27T07:51:09.697Z,94.60
2022-12-27T07:53:59.137Z,91.57
2022-12-27T07:56:41.704Z,95.28
2022-12-27T07:59:30.658Z,97.57
2022-12-27T08:02:19.842Z,95.15
2022-12-27T08:05:08.053Z,95.13
2022-12-27T08:07:50.687Z,94.30
2022-12-27T08:10:40.198Z,96.55
2022-12-27T08:13:21.730Z,99.07
2022-12-27T08:16:11.681Z,97.07
2022-12-27T08:18:55.176Z,98.95
2022-12-27T08:21:43.729Z,100.78
2022-12-27T08:24:32.692Z,101.03
2022-12-27T08:27:21.794Z,97.90
2022-12-27T08:30:03.994Z,96.18
2022-12-27T08:33:08.318Z,95.78
2022-12-27T08:38:42.739Z,95.05
2022-12-27T08:41:36.162Z,93.20
2022-12-27T08:44:26.714Z,95.22
2022-12-27T08:47:09.001Z,94.53
2022-12-27T08:49:57.710Z,98.50
2022-12-27T08:52:46.061Z,97.35
2022-12-27T08:55:27.769Z,92.10
2022-12-27T08:58:16.321Z,99.65
2022-12-27T09:01:05.601Z,98.65
2022-12-27T09:03:55.744Z,93.40
2022-12-27T09:06:44.755Z,92.68
2022-12-27T09:09:33.041Z,98.15
2022-12-27T09:12:16.093Z,97.20
2022-12-27T09:15:00.145Z,96.60
2022-12-27T09:17:48.723Z,93.90
2022-12-27T09:20:38.075Z,95.25
2022-12-27T09:23:20.618Z,92.60
2022-12-27T09:26:22.830Z,94.22
2022-12-27T09:29:05.994Z,95.68
2022-12-27T09:31:54.800Z,95.65
2022-12-27T09:34:37.034Z,95.10
2022-12-27T09:37:25.700Z,94.85
2022-12-27T09:40:08.166Z,97.10
2022-12-27T09:43:23.811Z,93.07
2022-12-27T09:46:10.524Z,96.40
2022-12-27T09:49:03.710Z,88.90
2022-12-27T09:52:08.581Z,96.10
2022-12-27T09:55:07.824Z,93.40
2022-12-27T09:57:53.951Z,93.65
2022-12-27T10:00:46.235Z,94.97
2022-12-27T10:03:34.043Z,93.75
2022-12-27T10:06:56.567Z,89.28
2022-12-27T10:13:02.118Z,75.47
2022-12-27T10:15:47.971Z,72.20
2022-12-27T10:18:57.779Z,70.82
2022-12-27T10:21:45.996Z,68.35
2022-12-27T10:24:43.770Z,67.38
2022-12-27T10:27:30.977Z,67.88
2022-12-27T10:30:24.719Z,69.05
2022-12-27T10:33:07.980Z,66.90
2022-12-27T10:35:57.765Z,67.78
2022-12-27T10:38:43.041Z,66.90
2022-12-27T10:41:40.763Z,67.22
2022-12-27T10:44:22.982Z,64.47
2022-12-27T10:47:11.723Z,63.88
2022-12-27T10:50:19.671Z,66.13
2022-12-27T10:53:08.023Z,63.40
2022-12-27T10:55:49.747Z,62.72
2022-12-27T10:58:37.998Z,60.92
2022-12-27T11:01:41.767Z,62.50
2022-12-27T11:07:12.740Z,57.83
2022-12-27T11:10:07.976Z,59.20
2022-12-27T11:13:16.690Z,59.35
2022-12-27T11:15:59.224Z,54.60
2022-12-27T11:18:50.716Z,54.97
2022-12-27T11:21:38.833Z,56.83
2022-12-27T11:24:31.653Z,54.80
2022-12-27T11:27:31.594Z,55.33
2022-12-27T11:30:15.013Z,56.70
2022-12-27T11:33:05.619Z,57.22
2022-12-27T11:35:58.036Z,56.85
2022-12-27T11:38:49.644Z,58.10
2022-12-27T11:41:57.963Z,59.55
2022-12-27T11:44:52.613Z,61.42
2022-12-27T11:47:59.723Z,57.90
2022-12-27T11:50:54.009Z,61.80
2022-12-27T11:54:29.622Z,60.97
2022-12-27T11:57:44.850Z,58.10
2022-12-27T12:00:39.538Z,56.97
2022-12-27T12:03:49.082Z,60.47
2022-12-27T12:07:01.628Z,59.33
2022-12-27T12:09:43.868Z,61.30
2022-12-27T12:13:01.635Z,57.15
2022-12-27T12:16:32.681Z,61.33
2022-12-27T12:20:20.984Z,61.90
2022-12-27T12:23:35.707Z,61.97
2022-12-27T12:26:30.009Z,63.13
2022-12-27T12:29:30.644Z,63.50
2022-12-27T12:32:22.452Z,61.92
2022-12-27T12:35:33.690Z,61.13
2022-12-27T12:38:29.941Z,59.50
2022-12-27T12:41:58.734Z,60.88
2022-12-27T12:45:07.898Z,61.65
2022-12-27T12:48:08.810Z,61.47
2022-12-27T12:51:23.548Z,64.60
2022-12-27T12:54:39.700Z,66.95
2022-12-27T12:57:39.998Z,67.32
2022-12-27T13:00:32.564Z,79.03
2022-12-27T13:03:37.449Z,79.60
2022-12-27T13:06:32.584Z,78.38
2022-12-27T13:09:41.925Z,78.10
2022-12-27T13:12:54.787Z,75.18
2022-12-27T13:15:57.909Z,78.10
2022-12-27T13:18:56.754Z,76.18
2022-12-27T13:22:06.009Z,76.57
2022-12-27T13:25:22.662Z,77.05
2022-12-27T13:28:44.908Z,77.38
2022-12-27T13:32:10.690Z,73.57
2022-12-27T13:35:28.007Z,65.40
2022-12-27T13:38:26.626Z,67.15
2022-12-27T13:41:39.989Z,66.88
2022-12-27T13:44:43.876Z,65.40
2022-12-27T13:47:56.680Z,66.43
2022-12-27T13:50:51.710Z,67.25
2022-12-27T13:53:54.955Z,69.70
2022-12-27T13:56:54.404Z,70.28
2022-12-27T14:00:15.638Z,68.05
2022-12-27T14:03:47.773Z,71.05
2022-12-27T14:07:11.167Z,71.63
2022-12-27T14:10:20.661Z,73.20
2022-12-27T14:13:19.936Z,78.57
2022-12-27T14:16:04.603Z,80.28
2022-12-27T14:19:17.552Z,79.93
2022-12-27T14:22:12.552Z,81.68
2022-12-27T14:25:12.934Z,84.88
2022-12-27T14:28:19.722Z,84.97
2022-12-27T14:31:43.567Z,85.70
2022-12-27T14:34:46.598Z,90.75
2022-12-27T14:38:12.741Z,89.83
2022-12-27T14:41:43.700Z,95.10
2022-12-27T14:44:44.738Z,97.68
2022-12-27T14:48:12.198Z,98.60
2022-12-27T14:51:03.639Z,101.00
2022-12-27T14:54:09.986Z,103.53
2022-12-27T14:57:36.538Z,106.53
2022-12-27T15:00:26.984Z,101.95
2022-12-27T15:03:45.591Z,107.50
2022-12-27T15:06:40.011Z,112.82
2022-12-27T15:12:30.540Z,111.40
2022-12-27T15:15:22.602Z,116.30
2022-12-27T15:18:19.984Z,120.68
2022-12-27T15:21:15.778Z,124.13
2022-12-27T15:24:18.957Z,125.43
2022-12-27T15:27:04.723Z,132.57
2022-12-27T15:30:09.986Z,136.13
2022-12-27T15:33:29.921Z,128.48
2022-12-27T15:36:25.926Z,137.00
2022-12-27T15:39:08.723Z,137.52
2022-12-27T15:42:37.976Z,136.35
2022-12-27T15:45:48.552Z,131.95
2022-12-27T15:49:14.983Z,133.55
2022-12-27T15:52:15.739Z,130.75
2022-12-27T15:55:23.005Z,140.27
2022-12-27T15:58:25.720Z,139.77
2022-12-27T16:01:26.391Z,139.85
2022-12-27T16:05:00.636Z,136.80
2022-12-27T16:07:59.553Z,137.30
2022-12-27T16:10:57.605Z,137.25
2022-12-27T16:13:49.927Z,139.50
2022-12-27T16:16:39.543Z,138.30
2022-12-27T16:20:16.431Z,137.63
2022-12-27T16:23:10.704Z,135.15
2022-12-27T16:26:08.884Z,133.07
2022-12-27T16:29:10.568Z,134.57
2022-12-27T16:31:59.984Z,131.20
2022-12-27T16:34:42.584Z,134.35
2022-12-27T16:38:04.507Z,137.77
2022-12-27T16:40:55.717Z,135.73
2022-12-27T16:44:12.982Z,137.85
2022-12-27T16:47:11.560Z,132.05
2022-12-27T16:50:22.731Z,133.70
2022-12-27T16:53:17.567Z,136.25
2022-12-27T16:56:32.613Z,133.02
2022-12-27T16:59:52.943Z,134.27
2022-12-27T17:03:01.614Z,131.25
2022-12-27T17:06:30.007Z,133.68
2022-12-27T17:09:16.960Z,127.45
2022-12-27T17:11:58.711Z,130.73
2022-12-27T17:14:49.938Z,129.25
2022-12-27T17:17:32.677Z,128.70
2022-12-27T17:20:26.419Z,128.05
2022-12-27T17:23:12.609Z,125.65
2022-12-27T17:26:09.824Z,128.73
2022-12-27T17:29:15.721Z,127.57
2022-12-27T17:32:10.755Z,128.25
2022-12-27T17:35:18.397Z,126.20
2022-12-27T17:38:40.229Z,124.43
2022-12-27T17:42:02.626Z,125.28
2022-12-27T17:45:16.675Z,122.32
2022-12-27T17:48:05.875Z,121.05
2022-12-27T17:51:02.694Z,122.40
2022-12-27T17:54:15.484Z,122.95
2022-12-27T17:57:26.486Z,121.10
2022-12-27T18:00:08.918Z,123.72
2022-12-27T18:02:58.648Z,118.85
2022-12-27T18:05:44.939Z,120.35
2022-12-27T18:08:37.590Z,119.20
2022-12-27T18:11:27.950Z,120.72
2022-12-27T18:14:21.649Z,120.80
2022-12-27T18:17:03.991Z,120.00
2022-12-27T18:19:52.650Z,123.70
2022-12-27T18:22:34.895Z,120.75
2022-12-27T18:25:47.522Z,123.32
2022-12-27T18:28:33.884Z,122.28
2022-12-27T18:32:04.669Z,119.47
2022-12-27T18:34:50.027Z,119.90
2022-12-27T18:37:42.659Z,118.82
2022-12-27T18:40:30.112Z,118.55
2022-12-27T18:43:25.478Z,117.03
2022-12-27T18:46:10.004Z,119.05
2022-12-27T18:49:00.581Z,118.18
2022-12-27T18:51:46.074Z,119.80
2022-12-27T18:54:37.538Z,121.53
2022-12-27T18:57:43.005Z,122.07
2022-12-27T19:00:34.525Z,123.35
2022-12-27T19:03:24.440Z,120.75
2022-12-27T19:06:19.569Z,124.15
2022-12-27T19:09:02.938Z,121.00
2022-12-27T19:12:01.594Z,121.57
2022-12-27T19:14:52.051Z,121.95
2022-12-27T19:17:40.627Z,123.75
2022-12-27T19:20:43.909Z,123.28
2022-12-27T19:23:43.692Z,125.77
2022-12-27T19:26:32.567Z,120.68
2022-12-27T19:29:20.007Z,121.25
2022-12-27T19:32:19.581Z,121.90
2022-12-27T19:35:10.955Z,119.93
2022-12-27T19:37:53.659Z,118.10
2022-12-27T19:40:36.014Z,119.75
2022-12-27T19:43:26.581Z,122.07
2022-12-27T19:46:08.808Z,119.95
2022-12-27T19:52:02.661Z,120.90
2022-12-27T19:54:58.506Z,118.78
2022-12-27T19:57:41.621Z,122.80
2022-12-27T20:00:32.682Z,120.70
2022-12-27T20:03:21.080Z,120.68
2022-12-27T20:06:13.093Z,119.60
2022-12-27T20:08:58.819Z,119.72
2022-12-27T20:11:47.644Z,118.65
2022-12-27T20:14:29.786Z,120.32
2022-12-27T20:17:18.526Z,119.40
2022-12-27T20:20:08.740Z,120.03
2022-12-27T20:22:51.106Z,119.20
2022-12-27T20:25:59.758Z,119.13
2022-12-27T20:28:42.224Z,120.30
2022-12-27T20:31:30.669Z,120.88
2022-12-27T20:34:12.996Z,119.55
2022-12-27T20:37:02.464Z,122.68
2022-12-27T20:39:44.670Z,118.88
2022-12-27T20:42:27.452Z,119.75
2022-12-27T20:45:17.543Z,121.63
2022-12-27T20:47:59.868Z,119.18
2022-12-27T20:50:49.657Z,118.40
2022-12-27T20:53:37.967Z,123.50
2022-12-27T20:56:21.514Z,125.50
2022-12-27T20:59:10.598Z,126.43
2022-12-27T21:01:57.002Z,123.00
2022-12-27T21:04:46.573Z,123.28
2022-12-27T21:07:28.938Z,171.82
2022-12-27T21:10:18.617Z,153.65
2022-12-27T21:13:56.235Z,210.43
2022-12-27T21:17:03.704Z,166.93
2022-12-27T21:19:45.859Z,142.27
2022-12-27T21:22:34.697Z,131.82
2022-12-27T21:25:17.864Z,129.00
2022-12-27T21:28:06.641Z,132.25
2022-12-27T21:30:48.892Z,131.68
2022-12-27T21:33:37.440Z,136.35
2022-12-27T21:36:22.844Z,130.07
2022-12-27T21:39:12.500Z,132.93
2022-12-27T21:41:55.078Z,142.98
2022-12-27T21:44:44.493Z,140.52
2022-12-27T21:47:27.698Z,132.40
2022-12-27T21:50:16.639Z,127.25
2022-12-27T21:53:11.419Z,128.27
2022-12-27T21:56:06.497Z,124.47
2022-12-27T21:58:49.869Z,125.40
2022-12-27T22:01:52.534Z,126.53
2022-12-27T22:04:41.479Z,126.57
2022-12-27T22:07:23.867Z,128.02
2022-12-27T22:10:13.571Z,125.10
2022-12-27T22:12:55.910Z,126.60
2022-12-27T22:15:44.533Z,130.60
2022-12-27T22:18:26.882Z,128.35
2022-12-27T22:21:16.559Z,135.68
2022-12-27T22:24:00.876Z,163.82
2022-12-27T22:26:50.702Z,164.82
2022-12-27T22:29:35.378Z,150.18
2022-12-27T22:32:25.502Z,141.63
2022-12-27T22:35:14.566Z,139.07
2022-12-27T22:38:03.522Z,139.10
2022-12-27T22:40:52.685Z,131.82
2022-12-27T22:43:35.476Z,130.27
2022-12-27T22:46:27.687Z,128.93
2022-12-27T22:49:16.557Z,126.75
2022-12-27T22:51:58.935Z,124.35
2022-12-27T22:55:05.688Z,125.13
2022-12-27T22:57:48.884Z,126.45
2022-12-27T23:00:37.491Z,125.00
2022-12-27T23:03:19.887Z,128.10
2022-12-27T23:06:09.658Z,126.70
2022-12-27T23:08:52.823Z,131.05
2022-12-27T23:11:44.629Z,131.18
2022-12-27T23:14:26.845Z,134.70
2022-12-27T23:17:15.489Z,133.40
2022-12-27T23:19:57.813Z,129.07
2022-12-27T23:22:46.428Z,132.57
2022-12-27T23:25:35.474Z,135.43
2022-12-27T23:28:23.926Z,134.73
2022-12-27T23:31:06.457Z,136.00
2022-12-27T23:33:49.557Z,135.40
2022-12-27T23:39:27.863Z,129.32
2022-12-27T23:42:09.605Z,137.55
2022-12-27T23:44:57.862Z,137.40
2022-12-27T23:47:39.612Z,139.38
2022-12-27T23:50:27.790Z,141.82
2022-12-27T23:53:09.412Z,139.07
2022-12-27T23:56:05.771Z,141.23
2022-12-27T23:58:48.547Z,134.02
